Annapolis, Maryland
Current Conditions -  °F | °C
As of 10:54 PM on Wednesday 22 Oct 2014 (Local Time) from KNAK Reporting Station
Light Rain Light Rain  
Wind Chill: 56°   Ceiling: 9000
Heat Index: 56°   Visibility: 10mi
Dew Point: 46°   Wind: 20mph
Humidity: 69%   Direction: 330°NNW
Pressure: 29.9"   Gusts: 24mph
Location:  38.98°N, 76.49°W
Report Text: KNAK 230254Z AUTO 33017G21KT 10SM -RA BKN090 OVC110 13/08 A2990 RMK AO2 SLP125 P0000 60001 T01330078 58003
Loading
Personal Weather Stations






























Interactive Weather Map
Tropical Storm Tracking
New forecast layout! Learn more

10-Day Weather Forecast

Advertisements
Track Severe Weather on mobile